TimeCST,TemperatureF,Dew PointF,Humidity,Sea Level PressureIn,VisibilityMPH,Wind Direction,Wind SpeedMPH,Gust SpeedMPH,PrecipitationIn,Events,Conditions,WindDirDegrees,DateUTC
12:15 AM,71.6,69.8,94,30.10,10.0,South,4.6,-,N/A,Thunderstorm,Mostly Cloudy,170,2012-12-05 06:15:00
12:48 AM,69.8,66.2,88,30.13,2.0,NW,19.6,26.5,0.21,Rain-Thunderstorm,Heavy Thunderstorms and Rain,310,2012-12-05 06:48:00
12:52 AM,66.9,64.0,90,30.11,0.8,Calm,Calm,-,0.37,Rain-Thunderstorm,Heavy Thunderstorms and Rain,0,2012-12-05 06:52:00
12:57 AM,66.2,64.4,94,30.10,1.0,ESE,5.8,-,0.02,Rain-Thunderstorm,Heavy Thunderstorms and Rain,110,2012-12-05 06:57:00
1:03 AM,68.0,62.6,83,30.10,6.0,SSE,3.5,-,0.02,Rain-Thunderstorm,Light Thunderstorms and Rain,150,2012-12-05 07:03:00
1:43 AM,66.2,62.6,88,30.11,10.0,West,5.8,-,0.02,,Clear,260,2012-12-05 07:43:00
1:52 AM,66.9,63.0,87,30.10,10.0,NW,5.8,-,0.02,,Clear,320,2012-12-05 07:52:00
2:52 AM,69.1,66.0,90,30.11,10.0,North,9.2,-,N/A,,Mostly Cloudy,350,2012-12-05 08:52:00
3:12 AM,69.8,66.2,88,30.11,10.0,North,10.4,-,N/A,,Overcast,360,2012-12-05 09:12:00
3:37 AM,69.8,66.2,88,30.11,10.0,North,9.2,-,N/A,,Overcast,350,2012-12-05 09:37:00
3:52 AM,69.1,66.0,90,30.11,10.0,NNE,12.7,-,N/A,,Overcast,20,2012-12-05 09:52:00
4:03 AM,69.8,66.2,88,30.12,10.0,NNE,11.5,-,N/A,,Overcast,20,2012-12-05 10:03:00
4:14 AM,69.8,66.2,88,30.12,10.0,North,9.2,-,N/A,,Overcast,10,2012-12-05 10:14:00
4:52 AM,68.0,66.0,93,30.12,10.0,North,9.2,-,N/A,,Overcast,360,2012-12-05 10:52:00
5:09 AM,68.0,66.2,94,30.12,10.0,North,10.4,-,N/A,,Overcast,350,2012-12-05 11:09:00
5:52 AM,68.0,66.0,93,30.13,9.0,NNW,10.4,-,N/A,,Overcast,330,2012-12-05 11:52:00
6:31 AM,66.2,64.4,94,30.15,8.0,NNW,10.4,-,N/A,,Overcast,330,2012-12-05 12:31:00
6:52 AM,66.0,64.0,93,30.16,8.0,NNW,12.7,-,N/A,,Overcast,340,2012-12-05 12:52:00
8:52 AM,66.0,61.0,84,30.19,10.0,NNW,15.0,-,N/A,,Clear,330,2012-12-05 14:52:00
9:52 AM,66.9,59.0,76,30.20,10.0,NNW,10.4,-,N/A,,Mostly Cloudy,340,2012-12-05 15:52:00
10:21 AM,69.8,60.8,73,30.19,10.0,North,10.4,-,N/A,,Clear,350,2012-12-05 16:21:00
10:52 AM,71.1,60.1,68,30.19,10.0,NNW,11.5,-,N/A,,Clear,340,2012-12-05 16:52:00
11:52 AM,73.0,60.1,64,30.16,10.0,NW,10.4,-,N/A,,Partly Cloudy,320,2012-12-05 17:52:00
12:11 PM,71.6,60.8,69,30.15,10.0,NW,11.5,-,N/A,,Mostly Cloudy,310,2012-12-05 18:11:00
12:27 PM,73.4,60.8,65,30.14,10.0,NW,11.5,-,N/A,,Scattered Clouds,320,2012-12-05 18:27:00
12:52 PM,73.9,60.1,62,30.12,10.0,NNW,10.4,-,N/A,,Scattered Clouds,330,2012-12-05 18:52:00
1:52 PM,78.1,60.1,54,30.08,10.0,NNW,11.5,-,N/A,,Clear,330,2012-12-05 19:52:00
2:52 PM,78.1,53.1,42,30.06,10.0,NNW,8.1,-,N/A,,Clear,340,2012-12-05 20:52:00
3:52 PM,78.1,53.1,42,30.05,10.0,NNW,6.9,-,N/A,,Clear,340,2012-12-05 21:52:00
4:52 PM,75.9,53.1,45,30.04,10.0,NNE,6.9,-,N/A,,Clear,30,2012-12-05 22:52:00
5:52 PM,69.1,59.0,70,30.04,10.0,ENE,9.2,-,N/A,,Clear,60,2012-12-05 23:52:00
6:52 PM,64.9,59.0,81,30.06,10.0,SE,3.5,-,N/A,,Clear,130,2012-12-06 00:52:00
7:52 PM,63.0,59.0,87,30.06,10.0,Calm,Calm,-,N/A,,Clear,0,2012-12-06 01:52:00
8:52 PM,60.8,57.2,88,30.06,10.0,ENE,6.9,-,N/A,,Clear,70,2012-12-06 02:52:00
9:52 PM,59.0,57.0,93,30.07,10.0,Calm,Calm,-,N/A,,Clear,0,2012-12-06 03:52:00
10:52 PM,57.9,55.9,93,30.05,7.0,SE,3.5,-,N/A,,Clear,140,2012-12-06 04:52:00
11:44 PM,59.0,57.2,94,30.04,2.5,Calm,Calm,-,N/A,,Clear,0,2012-12-06 05:44:00
11:52 PM,57.9,55.9,93,30.04,7.0,Calm,Calm,-,N/A,,Clear,0,2012-12-06 05:52:00